Time;durP1;ratioP1;P1;durP2;ratioP2;P2;SDS_P1;SDS_P2;PMS_P1;PMS_P2;Temp;Humidity;BMP_temperature;BMP_pressure;BME280_temperature;BME280_humidity;BME280_pressure;Samples;Min_cycle;Max_cycle;Signal;HPM_P1;HPM_P2
2024/01/31 00:01:56;;;;;;;12.40;12.00;;;;;;;-141.02;100.00;56933.25;5070530;28;20230;-62
2024/01/31 00:04:23;;;;;;;13.67;13.27;;;;;;;-141.02;100.00;56730.84;5071083;28;20274;-62
2024/01/31 00:06:50;;;;;;;12.73;12.33;;;;;;;-141.02;100.00;56462.91;5071001;28;20195;-62
2024/01/31 00:09:18;;;;;;;12.73;12.33;;;;;;;-141.02;100.00;56578.56;5071159;27;20278;-63
2024/01/31 00:11:45;;;;;;;13.30;12.90;;;;;;;-141.02;100.00;56457.13;5070852;28;20202;-62
2024/01/31 00:14:13;;;;;;;11.20;10.90;;;;;;;-141.02;100.00;56831.09;5070975;28;20194;-63
2024/01/31 00:16:42;;;;;;;10.80;10.50;;;;;;;-141.02;100.00;56705.78;5070883;28;20273;-62
2024/01/31 00:19:09;;;;;;;11.10;10.80;;;;;;;-141.02;100.00;56520.75;5070494;28;20275;-65
2024/01/31 00:21:36;;;;;;;10.70;10.40;;;;;;;-141.02;100.00;56752.06;5070356;28;20313;-61
2024/01/31 00:24:03;;;;;;;14.17;13.67;;;;;;;-141.02;100.00;56513.03;5070710;28;20279;-62
2024/01/31 00:26:30;;;;;;;14.60;14.10;;;;;;;-141.02;100.00;56435.94;5070708;28;20324;-63
2024/01/31 00:28:57;;;;;;;15.03;14.53;;;;;;;-141.02;100.00;56624.84;5070676;28;20195;-64
2024/01/31 00:31:24;;;;;;;14.60;14.10;;;;;;;-141.02;100.00;56617.13;5070623;28;20221;-61
2024/01/31 00:33:52;;;;;;;13.13;12.73;;;;;;;-141.02;100.00;56960.25;5070575;28;20281;-62
2024/01/31 00:36:19;;;;;;;12.30;11.90;;;;;;;-141.02;100.00;56856.16;5070542;28;20271;-62
2024/01/31 00:38:46;;;;;;;13.60;13.20;;;;;;;-141.02;100.00;56798.31;5070011;28;20234;-62
2024/01/31 00:41:13;;;;;;;12.70;12.30;;;;;;;-141.02;100.00;56809.88;5070082;28;20282;-62
2024/01/31 00:43:40;;;;;;;14.57;14.07;;;;;;;-141.02;100.00;56613.28;5070101;28;20602;-62
2024/01/31 00:46:07;;;;;;;16.20;15.60;;;;;;;-141.02;100.00;55726.69;5070402;28;20194;-62
2024/01/31 00:48:34;;;;;;;18.97;18.07;;;;;;;-141.02;100.00;55296.97;5070342;28;20293;-61
2024/01/31 00:51:02;;;;;;;19.33;18.43;;;;;;;-141.02;100.00;55034.94;5070329;28;20273;-61
2024/01/31 00:53:30;;;;;;;19.40;18.60;;;;;;;-141.02;100.00;55607.22;5070237;28;20231;-62
2024/01/31 00:55:57;;;;;;;18.37;17.57;;;;;;;-141.02;100.00;55374.06;5069912;28;20195;-62
2024/01/31 00:58:24;;;;;;;16.13;15.53;;;;;;;-141.02;100.00;55530.13;5069875;28;20285;-61
2024/01/31 01:00:51;;;;;;;15.70;15.10;;;;;;;-141.02;100.00;55352.84;5069861;28;20195;-63
2024/01/31 01:03:19;;;;;;;16.37;15.77;;;;;;;-141.02;100.00;55031.09;5069797;28;20317;-62
2024/01/31 01:05:46;;;;;;;15.57;15.07;;;;;;;-141.02;100.00;54890.44;5069735;28;20195;-63
2024/01/31 01:08:15;;;;;;;14.80;14.30;;;;;;;-141.02;100.00;54855.75;5069782;28;20202;-62
2024/01/31 01:10:42;;;;;;;16.63;16.03;;;;;;;-141.02;100.00;54790.25;5069694;28;20230;-63
2024/01/31 01:13:09;;;;;;;15.00;14.50;;;;;;;-141.02;100.00;54813.38;5069007;28;20194;-61
2024/01/31 01:15:35;;;;;;;16.50;15.80;;;;;;;-141.02;100.00;54680.44;5069639;28;20198;-63
2024/01/31 01:18:02;;;;;;;16.47;15.87;;;;;;;-141.02;100.00;54655.41;5069934;28;20297;-62
2024/01/31 01:20:29;;;;;;;15.80;15.20;;;;;;;-141.02;100.00;55349.00;5069544;28;20190;-62
2024/01/31 01:22:56;;;;;;;15.47;14.87;;;;;;;-141.02;100.00;55584.09;5069330;28;20236;-62
2024/01/31 01:25:25;;;;;;;14.20;13.70;;;;;;;-141.02;100.00;56231.63;5069474;28;20605;-63
2024/01/31 01:27:52;;;;;;;15.17;14.60;;;;;;;-141.02;100.00;55788.34;5069490;28;20194;-62
2024/01/31 01:30:19;;;;;;;15.30;14.70;;;;;;;-141.02;100.00;55537.84;5069782;28;20240;-63
2024/01/31 01:32:46;;;;;;;15.43;14.83;;;;;;;-141.02;100.00;55372.13;5069353;28;20241;-63
2024/01/31 01:35:14;;;;;;;15.27;14.77;;;;;;;-141.02;100.00;55341.28;5069278;28;20205;-64
2024/01/31 01:37:41;;;;;;;12.53;12.13;;;;;;;-141.02;100.00;55508.94;5069160;28;20234;-63
2024/01/31 01:40:09;;;;;;;14.17;13.77;;;;;;;-141.02;100.00;55339.38;5069202;28;20285;-62
2024/01/31 01:42:40;;;;;;;12.53;12.13;;;;;;;-141.02;100.00;55264.22;5069147;28;20233;-62
2024/01/31 01:45:08;;;;;;;12.23;11.83;;;;;;;-141.02;100.00;55545.56;5069623;28;20269;-62
2024/01/31 01:47:35;;;;;;;11.83;11.53;;;;;;;-141.02;100.00;55545.56;5069202;28;20197;-62
2024/01/31 01:50:03;;;;;;;12.23;11.83;;;;;;;-141.02;100.00;55557.13;5069218;27;20197;-62
2024/01/31 01:52:32;;;;;;;11.00;10.70;;;;;;;-141.02;100.00;55399.09;5069446;27;20202;-62
2024/01/31 01:55:02;;;;;;;15.10;14.60;;;;;;;-141.02;100.00;55295.06;5069356;27;20281;-63
2024/01/31 01:57:31;;;;;;;12.23;11.83;;;;;;;-141.02;100.00;55264.22;5069038;28;20557;-64
2024/01/31 02:00:00;;;;;;;14.30;13.90;;;;;;;-141.02;100.00;55275.78;5069304;28;20587;-62
2024/01/31 02:02:28;;;;;;;17.13;16.53;;;;;;;-141.02;100.00;55189.06;5069132;28;20226;-62
2024/01/31 02:04:55;;;;;;;16.67;16.07;;;;;;;-141.02;100.00;55150.53;5069284;28;20277;-64
2024/01/31 02:07:26;;;;;;;16.43;15.83;;;;;;;-141.02;100.00;55002.19;5069161;28;20281;-64
2024/01/31 02:09:54;;;;;;;15.83;15.33;;;;;;;-141.02;100.00;55021.44;5068952;28;20277;-62
2024/01/31 02:12:21;;;;;;;14.73;14.23;;;;;;;-141.02;100.00;55304.69;5069140;28;20226;-61
2024/01/31 02:14:48;;;;;;;14.83;14.33;;;;;;;-141.02;100.00;55148.63;5069032;28;20281;-63
2024/01/31 02:17:16;;;;;;;15.73;15.23;;;;;;;-141.02;100.00;55287.34;5069033;28;20194;-62
2024/01/31 02:19:43;;;;;;;14.83;14.33;;;;;;;-141.02;100.00;55487.75;5069031;28;20254;-62
2024/01/31 02:22:16;;;;;;;13.60;13.20;;;;;;;-141.02;100.00;55961.81;5068610;28;20313;-61
2024/01/31 02:24:43;;;;;;;12.60;12.20;;;;;;;-141.02;100.00;56100.56;5070704;28;20186;-62
2024/01/31 02:27:10;;;;;;;12.97;12.57;;;;;;;-141.02;100.00;56185.38;5072255;28;20281;-61
2024/01/31 02:29:38;;;;;;;12.60;12.20;;;;;;;-141.02;100.00;56698.09;5072290;28;20286;-62
2024/01/31 02:32:06;;;;;;;13.30;12.90;;;;;;;-141.02;100.00;55749.81;5072555;28;20209;-63
2024/01/31 02:34:33;;;;;;;13.33;12.93;;;;;;;-141.02;100.00;55599.50;5072479;28;20198;-62
2024/01/31 02:37:00;;;;;;;13.77;13.37;;;;;;;-141.02;100.00;55329.75;5072191;28;20239;-63
2024/01/31 02:39:28;;;;;;;14.87;14.37;;;;;;;-141.02;100.00;55349.00;5071952;28;20325;-62
2024/01/31 02:41:57;;;;;;;13.37;12.97;;;;;;;-141.02;100.00;55534.00;5071948;28;20202;-61
2024/01/31 02:44:24;;;;;;;14.37;13.97;;;;;;;-141.02;100.00;55229.53;5071970;28;20599;-62
2024/01/31 02:46:51;;;;;;;14.70;14.20;;;;;;;-141.02;100.00;55306.63;5072280;28;20234;-64
2024/01/31 02:49:18;;;;;;;14.90;14.40;;;;;;;-141.02;100.00;55194.84;5071883;28;20285;-63
2024/01/31 02:51:45;;;;;;;15.00;14.50;;;;;;;-141.02;100.00;55374.06;5072228;28;20198;-62
2024/01/31 02:54:12;;;;;;;14.97;14.47;;;;;;;-141.02;100.00;55518.56;5072168;28;20226;-62
2024/01/31 02:56:41;;;;;;;13.97;13.57;;;;;;;-141.02;100.00;55778.72;5071738;28;20656;-62
2024/01/31 02:59:08;;;;;;;14.77;14.27;;;;;;;-141.02;100.00;56119.84;5072056;28;20277;-63
2024/01/31 03:01:36;;;;;;;13.17;12.77;;;;;;;-141.02;100.00;56948.69;5072397;28;20676;-62
2024/01/31 03:04:03;;;;;;;13.27;12.87;;;;;;;-141.02;100.00;57295.72;5071683;28;20233;-62
2024/01/31 03:06:30;;;;;;;14.30;13.80;;;;;;;-141.02;100.00;57453.81;5071615;28;20670;-62
2024/01/31 03:08:57;;;;;;;13.03;12.63;;;;;;;-141.02;100.00;58271.41;5071982;27;20298;-63
2024/01/31 03:11:24;;;;;;;12.57;12.17;;;;;;;-141.02;100.00;59355.41;5071919;28;20201;-63
2024/01/31 03:13:53;;;;;;;12.67;12.27;;;;;;;-141.02;100.00;59783.72;5071819;28;20282;-62
2024/01/31 03:16:20;;;;;;;12.70;12.30;;;;;;;-141.02;100.00;60077.00;5071755;28;20237;-61
2024/01/31 03:18:47;;;;;;;11.33;11.03;;;;;;;-141.02;100.00;58877.03;5071481;28;20204;-62
2024/01/31 03:21:14;;;;;;;12.40;12.00;;;;;;;-141.02;100.00;58761.28;5071538;28;20226;-62
2024/01/31 03:23:41;;;;;;;12.83;12.43;;;;;;;-141.02;100.00;58988.91;5071291;28;20230;-62
2024/01/31 03:26:07;;;;;;;12.90;12.50;;;;;;;-141.02;100.00;59133.56;5071648;28;20278;-62
2024/01/31 03:28:34;;;;;;;12.43;12.03;;;;;;;-141.02;100.00;59320.69;5071372;28;20199;-61
2024/01/31 03:31:03;;;;;;;11.90;11.60;;;;;;;-141.02;100.00;59764.41;5071565;28;20194;-64
2024/01/31 03:33:30;;;;;;;12.60;12.20;;;;;;;-141.02;100.00;61122.97;5071240;28;20195;-62
2024/01/31 03:35:58;;;;;;;12.87;12.47;;;;;;;-141.02;100.00;64104.44;5070332;28;20241;-63
2024/01/31 03:38:25;;;;;;;12.50;12.10;;;;;;;-141.02;100.00;70036.50;5071129;28;20313;-62
2024/01/31 03:40:52;;;;;;;11.10;10.70;;;;;;;-141.02;100.00;73579.75;5071431;28;20277;-61
2024/01/31 03:43:19;;;;;;;11.17;10.87;;;;;;;-141.02;100.00;76060.28;5071324;28;20309;-63
2024/01/31 03:45:46;;;;;;;11.13;10.83;;;;;;;-141.02;100.00;76804.81;5071460;28;20731;-62
2024/01/31 03:48:15;;;;;;;10.80;10.50;;;;;;;-141.02;100.00;75812.16;5070927;28;20226;-62
2024/01/31 03:50:42;;;;;;;11.17;10.83;;;;;;;-141.02;100.00;73083.88;5070996;28;20668;-61
2024/01/31 03:53:09;;;;;;;11.50;11.20;;;;;;;-141.02;100.00;71195.88;5071336;28;20191;-62
2024/01/31 03:55:36;;;;;;;12.07;11.67;;;;;;;-141.02;100.00;70291.97;5071134;28;20198;-62
2024/01/31 03:58:03;;;;;;;10.80;10.50;;;;;;;-141.02;100.00;71464.97;5071228;28;20226;-61
2024/01/31 04:00:31;;;;;;;11.40;11.10;;;;;;;-141.02;100.00;72835.97;5070817;28;20285;-63
2024/01/31 04:02:58;;;;;;;10.63;10.33;;;;;;;-141.02;100.00;74075.72;5071059;28;20266;-63
2024/01/31 04:05:26;;;;;;;10.87;10.57;;;;;;;-141.02;100.00;72340.16;5071271;28;20198;-61
2024/01/31 04:07:54;;;;;;;10.70;10.40;;;;;;;-141.02;100.00;70733.25;5070660;28;20560;-62
2024/01/31 04:10:21;;;;;;;10.70;10.40;;;;;;;-141.02;100.00;70568.72;5070666;28;20668;-63
2024/01/31 04:12:48;;;;;;;10.57;10.27;;;;;;;-141.02;100.00;72072.94;5070601;28;20233;-63
2024/01/31 04:15:16;;;;;;;10.00;9.70;;;;;;;-141.02;100.00;70841.63;5070623;28;20230;-62
2024/01/31 04:17:44;;;;;;;10.90;10.60;;;;;;;-141.02;100.00;71830.91;5070842;28;20194;-62
2024/01/31 04:20:12;;;;;;;11.30;11.00;;;;;;;-141.02;100.00;72588.06;5070810;28;20199;-61
2024/01/31 04:22:40;;;;;;;10.27;9.97;;;;;;;-141.02;100.00;73331.81;5070463;27;20313;-62
2024/01/31 04:25:08;;;;;;;10.57;10.27;;;;;;;-141.02;100.00;73083.88;5070806;28;20198;-62
2024/01/31 04:27:36;;;;;;;11.93;11.53;;;;;;;-141.02;100.00;73827.72;5070444;28;20194;-62
2024/01/31 04:30:04;;;;;;;11.93;11.53;;;;;;;-141.02;100.00;74571.75;5070629;28;20295;-63
2024/01/31 04:32:31;;;;;;;11.50;11.10;;;;;;;-141.02;100.00;75812.16;5070349;28;20665;-62
2024/01/31 04:34:58;;;;;;;11.00;10.70;;;;;;;-141.02;100.00;75067.88;5070565;28;20259;-62
2024/01/31 04:37:25;;;;;;;11.83;11.50;;;;;;;-141.02;100.00;74323.72;5071117;28;20241;-62
2024/01/31 04:39:53;;;;;;;11.43;11.13;;;;;;;-141.02;100.00;75067.88;5070305;28;20278;-62
2024/01/31 04:42:20;;;;;;;11.33;11.03;;;;;;;-141.02;100.00;76060.28;5070137;28;20281;-62
2024/01/31 04:44:47;;;;;;;11.10;10.80;;;;;;;-141.02;100.00;75812.16;5070165;28;20195;-61
2024/01/31 04:47:14;;;;;;;11.27;10.97;;;;;;;-141.02;100.00;75067.88;5070073;28;20285;-62
2024/01/31 04:49:41;;;;;;;11.30;11.00;;;;;;;-141.02;100.00;73827.72;5070018;28;20686;-62
2024/01/31 04:52:08;;;;;;;12.03;11.63;;;;;;;-141.02;100.00;74323.72;5070068;28;20285;-62
2024/01/31 04:54:39;;;;;;;10.80;10.50;;;;;;;-141.02;100.00;74819.81;5070258;28;20285;-62
2024/01/31 04:57:07;;;;;;;11.30;11.00;;;;;;;-141.02;100.00;75564.03;5070055;28;20190;-63
2024/01/31 04:59:38;;;;;;;10.80;10.50;;;;;;;-141.02;100.00;75812.16;5070167;28;20293;-62
2024/01/31 05:02:05;;;;;;;11.37;11.07;;;;;;;-141.02;100.00;78046.00;5069910;28;20190;-61
2024/01/31 05:04:32;;;;;;;10.50;10.20;;;;;;;-141.02;100.00;80778.25;5069765;28;20265;-62
2024/01/31 05:06:59;;;;;;;8.63;8.43;;;;;;;-141.02;100.00;83263.97;5070075;28;20190;-62
2024/01/31 05:09:26;;;;;;;8.50;8.30;;;;;;;-141.02;100.00;81275.25;5070028;28;20290;-61
2024/01/31 05:11:53;;;;;;;9.83;9.53;;;;;;;-141.02;100.00;78294.28;5069991;28;20294;-62
2024/01/31 05:14:21;;;;;;;9.00;8.80;;;;;;;-141.02;100.00;77797.72;5070015;28;20209;-65
2024/01/31 05:16:49;;;;;;;11.40;11.10;;;;;;;-141.02;100.00;75315.94;5069873;28;20230;-62
2024/01/31 05:19:16;;;;;;;10.57;10.27;;;;;;;-141.02;100.00;75315.94;5069630;28;20230;-63
2024/01/31 05:21:45;;;;;;;10.03;9.73;;;;;;;-141.02;100.00;76060.28;5069602;27;20678;-61
2024/01/31 05:24:12;;;;;;;8.67;8.47;;;;;;;-141.02;100.00;79039.28;5069425;28;20700;-62
2024/01/31 05:26:40;;;;;;;8.90;8.70;;;;;;;-141.02;100.00;77549.47;5069475;28;20190;-64
2024/01/31 05:29:06;;;;;;;9.00;8.80;;;;;;;-141.02;100.00;77053.00;5069727;28;20595;-61
2024/01/31 05:31:35;;;;;;;8.23;8.03;;;;;;;-141.02;100.00;77301.22;5069404;28;20289;-60
2024/01/31 05:34:02;;;;;;;8.30;8.10;;;;;;;-141.02;100.00;76308.44;5069641;28;20642;-61
2024/01/31 05:36:29;;;;;;;10.80;10.50;;;;;;;-141.02;100.00;75812.16;5069621;28;20323;-62
2024/01/31 05:38:56;;;;;;;9.70;9.40;;;;;;;-141.02;100.00;76308.44;5069097;28;20313;-62
2024/01/31 05:41:23;;;;;;;9.03;8.83;;;;;;;-141.02;100.00;76804.81;5069221;28;20201;-62
2024/01/31 05:43:50;;;;;;;10.13;9.83;;;;;;;-141.02;100.00;76060.28;5069460;27;20265;-62
2024/01/31 05:46:17;;;;;;;10.87;10.57;;;;;;;-141.02;100.00;76804.81;5069175;27;20285;-60
2024/01/31 05:48:47;;;;;;;10.57;10.27;;;;;;;-141.02;100.00;79287.66;5069431;28;20195;-62
2024/01/31 05:51:15;;;;;;;9.27;9.00;;;;;;;-141.02;100.00;83512.63;5069382;27;20212;-62
2024/01/31 05:53:42;;;;;;;9.10;8.90;;;;;;;-141.02;100.00;85253.84;5069364;28;20277;-64
2024/01/31 05:56:09;;;;;;;8.90;8.70;;;;;;;-141.02;100.00;84010.03;5069352;28;20277;-61
2024/01/31 05:58:36;;;;;;;9.63;9.33;;;;;;;-141.02;100.00;83263.97;5068440;28;20190;-63
2024/01/31 06:01:03;;;;;;;9.10;8.90;;;;;;;-141.02;100.00;84010.03;5069217;28;20297;-62
2024/01/31 06:03:30;;;;;;;10.37;10.07;;;;;;;-141.02;100.00;83512.63;5069112;28;20305;-62
2024/01/31 06:05:58;;;;;;;10.70;10.40;;;;;;;-141.02;100.00;83512.63;5069193;28;20243;-63
2024/01/31 06:08:25;;;;;;;11.10;10.80;;;;;;;-141.02;100.00;81523.75;5069149;28;20230;-63
2024/01/31 06:10:58;;;;;;;11.30;11.00;;;;;;;-141.02;100.00;81275.25;5069164;28;20197;-63
2024/01/31 06:13:25;;;;;;;11.07;10.77;;;;;;;-141.02;100.00;81026.72;5069164;28;20191;-63
2024/01/31 06:15:52;;;;;;;11.93;11.53;;;;;;;-141.02;100.00;82766.69;5068770;28;20708;-64
2024/01/31 06:18:19;;;;;;;12.00;11.60;;;;;;;-141.02;100.00;82269.47;5069071;28;20191;-62
2024/01/31 06:20:46;;;;;;;12.13;11.73;;;;;;;-141.02;100.00;81523.75;5068723;28;20241;-61
2024/01/31 06:23:15;;;;;;;12.00;11.60;;;;;;;-141.02;100.00;80778.25;5069019;28;20230;-62
2024/01/31 06:25:42;;;;;;;12.83;12.43;;;;;;;-141.02;100.00;80281.31;5068766;28;20289;-61
2024/01/31 06:28:09;;;;;;;12.27;11.87;;;;;;;-141.02;100.00;80529.75;5068956;28;20632;-64
2024/01/31 06:30:43;;;;;;;13.17;12.77;;;;;;;-141.02;100.00;80281.31;5068941;28;20203;-62
2024/01/31 06:33:10;;;;;;;12.30;11.90;;;;;;;-141.02;100.00;79536.03;5068501;28;20187;-65
2024/01/31 06:35:38;;;;;;;12.73;12.33;;;;;;;-141.02;100.00;78790.94;5068517;28;20669;-63
2024/01/31 06:38:05;;;;;;;12.50;12.10;;;;;;;-141.02;100.00;79039.28;5068684;27;20282;-65
2024/01/31 06:40:35;;;;;;;12.80;12.40;;;;;;;-141.02;100.00;80529.75;5068581;28;20198;-62
2024/01/31 06:43:02;;;;;;;13.00;12.60;;;;;;;-141.02;100.00;80778.25;5068705;28;20199;-61
2024/01/31 06:45:29;;;;;;;12.77;12.37;;;;;;;-141.02;100.00;80778.25;5069012;28;20634;-63
2024/01/31 06:47:56;;;;;;;12.97;12.57;;;;;;;-141.02;100.00;80778.25;5068720;28;20226;-62
2024/01/31 06:50:23;;;;;;;13.77;13.37;;;;;;;-141.02;100.00;81026.72;5068663;28;20297;-63
2024/01/31 06:52:50;;;;;;;13.80;13.40;;;;;;;-141.02;100.00;82020.88;5068687;28;20227;-61
2024/01/31 06:55:17;;;;;;;13.93;13.53;;;;;;;-141.02;100.00;82020.88;5068257;28;20728;-62
2024/01/31 06:57:45;;;;;;;13.73;13.33;;;;;;;-141.02;100.00;83263.97;5068268;28;20286;-62
2024/01/31 07:00:15;;;;;;;13.33;12.93;;;;;;;-141.02;100.00;80529.75;5068211;28;20723;-64
2024/01/31 07:02:42;;;;;;;15.10;14.60;;;;;;;-141.02;100.00;78542.63;5068740;28;20723;-63
2024/01/31 07:05:09;;;;;;;16.57;15.97;;;;;;;-141.02;100.00;77301.22;5068137;28;20711;-61
2024/01/31 07:07:36;;;;;;;17.03;16.43;;;;;;;-141.02;100.00;77301.22;5068106;28;20191;-62
2024/01/31 07:10:03;;;;;;;16.00;15.50;;;;;;;-141.02;100.00;77797.72;5068175;28;20254;-62
2024/01/31 07:12:30;;;;;;;16.67;16.07;;;;;;;-141.02;100.00;78046.00;5071051;28;20616;-62
2024/01/31 07:14:58;;;;;;;18.30;17.60;;;;;;;-141.02;100.00;76804.81;5071447;28;20664;-62
2024/01/31 07:17:25;;;;;;;18.20;17.50;;;;;;;-141.02;100.00;75564.03;5071594;28;20296;-61
2024/01/31 07:19:52;;;;;;;18.63;17.93;;;;;;;-141.02;100.00;76804.81;5071570;28;20352;-63
2024/01/31 07:22:19;;;;;;;16.80;16.20;;;;;;;-141.02;100.00;76804.81;5071450;28;20735;-63
2024/01/31 07:24:46;;;;;;;17.50;16.90;;;;;;;-141.02;100.00;75564.03;5071383;28;20316;-63
2024/01/31 07:27:13;;;;;;;19.20;18.40;;;;;;;-141.02;100.00;72835.97;5071766;28;20277;-62
2024/01/31 07:29:40;;;;;;;17.93;17.23;;;;;;;-141.02;100.00;73827.72;5072037;28;20197;-62
2024/01/31 07:32:08;;;;;;;15.37;14.87;;;;;;;-141.02;100.00;75564.03;5071596;28;20226;-65
2024/01/31 07:34:35;;;;;;;16.83;16.23;;;;;;;-141.02;100.00;75564.03;5071954;28;20226;-65
2024/01/31 07:37:03;;;;;;;19.23;18.53;;;;;;;-141.02;100.00;74819.81;5071190;28;20286;-65
2024/01/31 07:39:30;;;;;;;20.30;19.40;;;;;;;-141.02;100.00;74571.75;5071538;28;20271;-65
2024/01/31 07:41:57;;;;;;;20.77;19.77;;;;;;;-141.02;100.00;74075.72;5071460;28;20199;-66
2024/01/31 07:44:24;;;;;;;21.03;20.13;;;;;;;-141.02;100.00;75067.88;5071263;28;20330;-66
2024/01/31 07:46:51;;;;;;;19.87;19.07;;;;;;;-141.02;100.00;75564.03;5071116;28;20662;-67
2024/01/31 07:49:20;;;;;;;19.57;18.77;;;;;;;-141.02;100.00;75812.16;5070982;28;20237;-67
2024/01/31 07:51:47;;;;;;;22.53;21.53;;;;;;;-141.02;100.00;76308.44;5071263;28;20217;-68
2024/01/31 07:54:13;;;;;;;23.53;22.53;;;;;;;-141.02;100.00;75315.94;5070949;28;20285;-67
2024/01/31 07:56:40;;;;;;;25.07;23.87;;;;;;;-141.02;100.00;75067.88;5070959;27;20248;-67
2024/01/31 07:59:07;;;;;;;23.93;22.83;;;;;;;-141.02;100.00;75812.16;5070931;28;20645;-66
2024/01/31 08:01:34;;;;;;;24.50;23.30;;;;;;;-141.02;100.00;74571.75;5070823;28;20751;-66
2024/01/31 08:04:01;;;;;;;20.40;19.50;;;;;;;-141.02;100.00;74075.72;5070766;28;20222;-65
2024/01/31 08:06:30;;;;;;;20.23;19.33;;;;;;;-141.02;100.00;75564.03;5070663;28;20241;-65
2024/01/31 08:08:57;;;;;;;21.37;20.37;;;;;;;-141.02;100.00;75315.94;5070986;28;20233;-65
2024/01/31 08:11:24;;;;;;;23.20;22.10;;;;;;;-141.02;100.00;75315.94;5070748;28;20289;-67
2024/01/31 08:13:50;;;;;;;22.97;21.87;;;;;;;-141.02;100.00;75812.16;5071273;28;20278;-66
2024/01/31 08:16:17;;;;;;;19.97;18.87;;;;;;;-141.02;100.00;74819.81;5070713;28;20216;-66
2024/01/31 08:18:44;;;;;;;17.90;16.90;;;;;;;-141.02;100.00;73331.81;5070517;28;20740;-66
2024/01/31 08:21:12;;;;;;;19.40;18.40;;;;;;;-141.02;100.00;73331.81;5070827;28;20277;-68
2024/01/31 08:23:40;;;;;;;17.97;17.07;;;;;;;-141.02;100.00;75564.03;5070339;28;20286;-67
2024/01/31 08:26:07;;;;;;;19.67;18.57;;;;;;;-141.02;100.00;74819.81;5070515;28;20648;-67
2024/01/31 08:28:34;;;;;;;22.40;21.20;;;;;;;-141.02;100.00;74571.75;5070774;28;20233;-66
2024/01/31 08:31:02;;;;;;;21.27;20.07;;;;;;;-141.02;100.00;73083.88;5071063;28;20234;-65
2024/01/31 08:33:29;;;;;;;21.00;19.80;;;;;;;-141.02;100.00;73579.75;5070655;28;20305;-65
2024/01/31 08:35:56;;;;;;;25.43;24.03;;;;;;;-141.02;100.00;73083.88;5070336;28;20656;-65
2024/01/31 08:38:23;;;;;;;26.47;24.97;;;;;;;-141.02;100.00;70899.72;5070327;28;20305;-65
2024/01/31 08:40:51;;;;;;;26.63;25.03;;;;;;;-141.02;100.00;74323.72;5070550;28;20195;-65
2024/01/31 08:43:18;;;;;;;30.80;29.00;;;;;;;-141.02;100.00;74323.72;5070208;28;20739;-65
2024/01/31 08:45:45;;;;;;;24.63;23.03;;;;;;;-141.02;100.00;73331.81;5070160;27;20735;-65
2024/01/31 08:48:12;;;;;;;27.40;25.70;;;;;;;-141.02;100.00;72835.97;5070111;28;20198;-65
2024/01/31 08:50:39;;;;;;;29.70;27.90;;;;;;;-141.02;100.00;73083.88;5070372;28;20237;-66
2024/01/31 08:53:06;;;;;;;25.70;24.10;;;;;;;-141.02;100.00;73083.88;5070361;28;20233;-66
2024/01/31 08:55:33;;;;;;;26.10;24.40;;;;;;;-141.02;100.00;73331.81;5070037;28;20294;-66
2024/01/31 08:58:02;;;;;;;26.13;24.53;;;;;;;-141.02;100.00;71329.47;5070243;28;20198;-66
2024/01/31 09:00:29;;;;;;;27.00;25.20;;;;;;;-141.02;100.00;71596.63;5069943;28;20198;-66
2024/01/31 09:02:56;;;;;;;24.20;22.60;;;;;;;-141.02;100.00;71596.63;5070196;28;20278;-66
2024/01/31 09:05:24;;;;;;;42.90;39.70;;;;;;;-141.02;100.00;73083.88;5070129;28;20234;-67
2024/01/31 09:07:50;;;;;;;26.17;24.37;;;;;;;-141.02;100.00;71534.69;5070131;28;20226;-68
2024/01/31 09:10:17;;;;;;;25.50;23.70;;;;;;;-141.02;98.32;71271.38;5069768;28;20190;-68
2024/01/31 09:12:44;;;;;;;26.50;24.70;;;;;;;-141.02;98.51;72092.31;5069674;28;20209;-69
2024/01/31 09:15:13;;;;;;;26.90;25.00;;;;;;;-141.02;95.08;72340.16;5070003;28;20286;-69
2024/01/31 09:17:40;;;;;;;31.43;29.43;;;;;;;-141.02;93.09;71226.84;5069861;28;20237;-69
2024/01/31 09:20:08;;;;;;;32.30;30.20;;;;;;;-141.02;99.42;71844.47;5069650;28;20205;-70
2024/01/31 09:22:35;;;;;;;32.73;30.73;;;;;;;-141.02;99.29;70051.97;5069644;27;20282;-69
2024/01/31 09:25:01;;;;;;;31.33;29.33;;;;;;;-141.02;99.50;70971.34;5069511;28;20681;-69
2024/01/31 09:27:28;;;;;;;32.33;30.23;;;;;;;-141.02;98.14;73083.88;5069550;28;20234;-69
2024/01/31 09:29:55;;;;;;;31.83;29.73;;;;;;;-141.02;93.36;72092.31;5069718;28;20198;-69
2024/01/31 09:32:24;;;;;;;29.53;27.53;;;;;;;-141.02;93.75;74075.72;5069711;28;20201;-69
2024/01/31 09:34:50;;;;;;;29.00;27.00;;;;;;;-141.02;93.28;74075.72;5068805;28;20202;-70
2024/01/31 09:37:17;;;;;;;29.60;27.50;;;;;;;-141.02;94.83;73827.72;5069368;28;20306;-68
2024/01/31 09:39:44;;;;;;;28.73;26.73;;;;;;;-141.02;93.30;74075.72;5069348;28;20187;-68
2024/01/31 09:42:11;;;;;;;28.20;26.20;;;;;;;-141.02;94.92;75564.03;5069219;28;20201;-69
2024/01/31 09:44:39;;;;;;;29.33;27.23;;;;;;;-141.02;91.73;75315.94;5069241;27;20236;-69
2024/01/31 09:47:09;;;;;;;24.47;22.60;;;;;;;-141.02;92.56;74571.75;5069140;28;20202;-68
2024/01/31 09:49:56;;;;;;;23.20;21.27;;;;;;;-141.02;89.12;73331.81;5069651;27;20197;-70
2024/01/31 09:52:27;;;;;;;22.37;20.47;;;;;;;-141.02;97.50;70802.94;5069094;28;20190;-69
2024/01/31 09:54:57;;;;;;;20.50;18.80;;;;;;;-141.02;98.72;74571.75;5069197;27;20250;-69
2024/01/31 09:57:24;;;;;;;22.40;20.50;;;;;;;-141.02;91.79;74323.72;5069405;28;20213;-69
2024/01/31 09:59:51;;;;;;;21.97;20.17;;;;;;;-141.02;92.29;76804.81;5069288;28;20198;-70
2024/01/31 10:02:18;;;;;;;24.10;22.10;;;;;;;-141.02;84.27;75315.94;5069307;28;20197;-70
2024/01/31 10:04:47;;;;;;;24.17;22.20;;;;;;;-141.02;86.03;76804.81;5069317;27;20330;-70
2024/01/31 10:07:24;;;;;;;25.13;23.13;;;;;;;-141.02;86.53;77301.22;5068892;28;20191;-70
2024/01/31 10:09:51;;;;;;;25.03;22.93;;;;;;;-141.02;81.38;76060.28;5069214;28;20571;-71
2024/01/31 10:12:20;;;;;;;25.00;22.90;;;;;;;-141.02;83.13;76060.28;5068866;28;20680;-71
2024/01/31 10:14:48;;;;;;;25.10;22.90;;;;;;;-141.02;82.05;77053.00;5069162;28;20258;-71
2024/01/31 10:17:15;;;;;;;24.00;21.90;;;;;;;-141.02;80.69;77053.00;5069165;28;20195;-72
2024/01/31 10:19:42;;;;;;;23.53;21.43;;;;;;;-141.02;81.42;76060.28;5069109;27;20194;-67
2024/01/31 10:22:10;;;;;;;26.20;24.00;;;;;;;-141.02;82.72;75812.16;5069071;28;20190;-72
2024/01/31 10:24:39;;;;;;;24.03;21.93;;;;;;;-141.02;79.30;73083.88;5068712;28;20261;-71
2024/01/31 10:27:08;;;;;;;25.50;23.40;;;;;;;-141.02;86.69;76308.44;5068720;28;20194;-72
2024/01/31 10:29:38;;;;;;;27.83;25.53;;;;;;;-141.02;80.39;74075.72;5068625;28;20286;-70
2024/01/31 10:32:06;;;;;;;26.50;24.30;;;;;;;-141.02;84.26;75564.03;5068685;27;20580;-71
2024/01/31 10:34:34;;;;;;;27.53;25.23;;;;;;;-141.02;82.42;75564.03;5068679;27;20736;-70
2024/01/31 10:37:18;;;;;;;25.87;23.67;;;;;;;-141.02;82.64;75564.03;5068846;28;20198;-71
2024/01/31 10:39:47;;;;;;;23.63;21.53;;;;;;;-141.02;84.35;76308.44;5028755;28;20191;-70
2024/01/31 10:42:16;;;;;;;27.13;24.83;;;;;;;-141.02;83.34;74819.81;5028693;28;20283;-70
2024/01/31 10:44:46;;;;;;;26.03;23.73;;;;;;;-141.02;79.79;74819.81;5028755;28;20318;-70
2024/01/31 10:47:13;;;;;;;25.70;23.50;;;;;;;-141.02;80.53;73827.72;5032403;28;20202;-70
2024/01/31 10:49:40;;;;;;;28.20;25.90;;;;;;;-141.02;79.53;74075.72;5032429;28;20283;-70
2024/01/31 10:52:10;;;;;;;26.90;24.60;;;;;;;-141.02;79.09;74323.72;5032095;28;20684;-70
2024/01/31 10:54:46;;;;;;;27.23;24.97;;;;;;;-141.02;80.54;74819.81;5032437;28;20289;-69
2024/01/31 10:57:16;;;;;;;28.40;26.00;;;;;;;-141.02;74.57;75067.88;5032001;28;20664;-70
2024/01/31 10:59:43;;;;;;;28.63;26.23;;;;;;;-141.02;72.71;73827.72;5031987;28;20657;-69